Time;durP1;ratioP1;P1;durP2;ratioP2;P2;SDS_P1;SDS_P2;PMS_P1;PMS_P2;Temp;Humidity;BMP_temperature;BMP_pressure;BME280_temperature;BME280_humidity;BME280_pressure;Samples;Min_cycle;Max_cycle;Signal;HPM_P1;HPM_P2
2021/03/11 00:00:07;;;;;;;57.63;30.97;;;6.50;97.00;;;;;;5046603;28;20118;-74
2021/03/11 00:02:33;;;;;;;60.10;34.03;;;6.50;97.00;;;;;;5058502;28;20040;-73
2021/03/11 00:04:59;;;;;;;52.20;31.30;;;6.60;96.90;;;;;;5047271;28;20390;-73
2021/03/11 00:07:25;;;;;;;53.57;29.13;;;6.50;97.10;;;;;;5038911;28;20032;-73
2021/03/11 00:09:51;;;;;;;51.10;28.53;;;6.40;97.10;;;;;;5027476;28;20036;-73
2021/03/11 00:12:16;;;;;;;48.03;29.30;;;6.50;97.20;;;;;;5039906;28;20037;-75
2021/03/11 00:14:43;;;;;;;35.20;23.13;;;6.50;97.20;;;;;;5044219;28;20059;-74
2021/03/11 00:17:12;;;;;;;43.43;26.40;;;6.60;97.10;;;;;;5038700;28;20518;-73
2021/03/11 00:19:38;;;;;;;41.17;26.27;;;6.60;96.90;;;;;;5045769;28;20061;-73
2021/03/11 00:22:04;;;;;;;31.47;20.40;;;6.70;96.90;;;;;;5051355;28;20075;-74
2021/03/11 00:24:31;;;;;;;39.63;23.70;;;6.70;96.70;;;;;;5046198;28;20048;-73
2021/03/11 00:26:57;;;;;;;32.23;20.70;;;6.60;96.70;;;;;;5043950;28;20054;-74
2021/03/11 00:29:24;;;;;;;35.13;21.97;;;6.70;96.70;;;;;;5024675;28;20387;-73
2021/03/11 00:31:50;;;;;;;47.47;27.30;;;6.70;96.80;;;;;;5033158;28;20044;-74
2021/03/11 00:34:16;;;;;;;44.10;26.50;;;6.50;96.90;;;;;;5060547;28;20048;-74
2021/03/11 00:36:42;;;;;;;42.17;25.23;;;6.70;96.90;;;;;;5046304;28;20087;-75
2021/03/11 00:39:08;;;;;;;46.37;27.53;;;6.60;96.90;;;;;;5026582;28;20051;-73
2021/03/11 00:41:37;;;;;;;44.57;27.07;;;6.60;96.90;;;;;;5012062;28;20518;-73
2021/03/11 00:44:03;;;;;;;45.77;24.43;;;6.70;97.00;;;;;;5061925;28;20045;-73
2021/03/11 00:46:29;;;;;;;46.47;26.43;;;6.60;97.10;;;;;;5043039;28;20139;-73
2021/03/11 00:48:55;;;;;;;51.33;27.43;;;6.60;97.20;;;;;;5033022;28;20184;-73
2021/03/11 00:51:21;;;;;;;48.47;25.10;;;6.60;97.20;;;;;;5038326;28;20033;-73
2021/03/11 00:53:47;;;;;;;40.50;23.07;;;6.60;97.30;;;;;;5029223;28;20530;-73
2021/03/11 00:56:12;;;;;;;43.43;24.53;;;6.60;97.30;;;;;;5056960;28;20087;-73
2021/03/11 00:58:38;;;;;;;49.00;27.53;;;6.60;97.30;;;;;;5067177;28;20075;-73
2021/03/11 01:01:04;;;;;;;40.37;24.83;;;6.60;97.40;;;;;;5034391;28;20033;-74
2021/03/11 01:03:30;;;;;;;41.47;22.03;;;6.60;97.50;;;;;;5034027;28;20427;-74
2021/03/11 01:05:56;;;;;;;38.03;23.40;;;6.60;97.60;;;;;;5039940;28;20037;-74
2021/03/11 01:08:22;;;;;;;42.93;24.30;;;6.60;97.50;;;;;;5066492;28;20040;-73
2021/03/11 01:10:48;;;;;;;39.57;25.13;;;6.60;97.50;;;;;;5020363;28;20140;-74
2021/03/11 01:13:14;;;;;;;29.73;16.90;;;6.70;97.50;;;;;;5047526;28;20570;-73
2021/03/11 01:15:42;;;;;;;42.30;24.23;;;6.80;97.40;;;;;;5070155;28;20037;-75
2021/03/11 01:18:10;;;;;;;43.47;25.47;;;6.70;97.40;;;;;;5050534;28;20045;-73
2021/03/11 01:20:40;;;;;;;40.33;24.47;;;6.70;97.40;;;;;;5065211;28;20045;-74
2021/03/11 01:23:06;;;;;;;42.30;24.07;;;6.70;97.50;;;;;;5066413;28;20099;-74
2021/03/11 01:25:32;;;;;;;36.17;22.87;;;6.80;97.50;;;;;;5068623;28;20056;-73
2021/03/11 01:28:04;;;;;;;33.83;20.43;;;6.80;97.40;;;;;;5048105;28;20094;-74
2021/03/11 01:30:29;;;;;;;40.40;25.13;;;6.80;97.40;;;;;;5067978;28;20047;-73
2021/03/11 01:32:56;;;;;;;38.57;23.60;;;6.80;97.40;;;;;;5050327;28;20041;-74
2021/03/11 01:35:22;;;;;;;32.07;19.97;;;6.80;97.40;;;;;;5053063;28;20084;-73
2021/03/11 01:37:51;;;;;;;39.33;23.17;;;6.80;97.40;;;;;;5044791;28;20538;-77
2021/03/11 01:40:17;;;;;;;40.27;24.53;;;6.80;97.40;;;;;;5028030;28;20103;-78
2021/03/11 01:42:43;;;;;;;39.30;23.33;;;6.80;97.30;;;;;;5052569;28;20491;-77
2021/03/11 01:45:09;;;;;;;39.57;23.20;;;6.90;97.40;;;;;;5051416;28;20106;-77
2021/03/11 01:47:36;;;;;;;38.03;23.03;;;6.90;97.40;;;;;;5050380;28;20505;-78
2021/03/11 01:50:03;;;;;;;45.27;26.23;;;6.90;97.50;;;;;;5059634;28;20072;-75
2021/03/11 01:52:29;;;;;;;40.83;25.07;;;6.90;97.50;;;;;;5033800;28;20118;-77
2021/03/11 01:54:55;;;;;;;45.17;23.17;;;6.90;97.50;;;;;;5050081;28;20047;-77
2021/03/11 01:57:21;;;;;;;49.73;27.03;;;6.90;97.60;;;;;;5067297;28;20047;-74
2021/03/11 01:59:51;;;;;;;43.53;23.03;;;6.90;97.60;;;;;;5068475;28;20039;-73
2021/03/11 02:02:18;;;;;;;47.25;25.27;;;6.90;97.70;;;;;;5068708;28;20157;-73
2021/03/11 02:04:53;;;;;;;38.77;20.87;;;6.80;97.70;;;;;;5064303;28;20040;-73
2021/03/11 02:07:19;;;;;;;41.63;24.27;;;6.80;97.80;;;;;;5032446;28;20076;-74
2021/03/11 02:09:45;;;;;;;45.40;25.70;;;6.80;97.80;;;;;;5049590;28;20064;-73
2021/03/11 02:12:35;;;;;;;48.67;26.00;;;6.80;97.80;;;;;;5058395;28;20040;-73
2021/03/11 02:15:07;;;;;;;38.53;23.60;;;6.90;97.90;;;;;;5064118;28;20073;-73
2021/03/11 02:18:05;;;;;;;46.13;24.77;;;6.90;97.90;;;;;;5062037;28;20052;-73
2021/03/11 02:20:55;;;;;;;41.30;22.17;;;6.90;97.90;;;;;;5028696;28;20158;-75
2021/03/11 02:23:40;;;;;;;47.77;26.00;;;6.80;98.00;;;;;;5044063;28;20135;-74
2021/03/11 02:26:31;;;;;;;43.80;22.97;;;6.90;98.00;;;;;;5042883;28;20049;-74
2021/03/11 02:29:19;;;;;;;39.00;22.92;;;6.80;98.10;;;;;;5041825;28;20041;-74
2021/03/11 02:31:46;;;;;;;40.70;23.90;;;6.90;98.20;;;;;;5040168;28;20036;-74
2021/03/11 02:34:29;;;;;;;43.37;24.00;;;6.80;98.10;;;;;;5039447;28;20041;-74
2021/03/11 02:36:58;;;;;;;43.00;24.27;;;6.90;98.10;;;;;;5044604;28;20579;-72
2021/03/11 02:39:27;;;;;;;37.37;20.57;;;6.90;98.10;;;;;;5039138;28;20082;-73
2021/03/11 02:41:55;;;;;;;47.30;25.17;;;6.90;98.20;;;;;;5040234;28;20037;-73
2021/03/11 02:44:22;;;;;;;39.57;22.80;;;6.90;98.10;;;;;;5045122;28;20684;-73
2021/03/11 02:46:52;;;;;;;40.83;25.00;;;6.90;98.20;;;;;;5046135;28;20033;-72
2021/03/11 02:49:22;;;;;;;42.67;23.60;;;6.90;98.20;;;;;;5060939;28;20455;-72
2021/03/11 02:51:51;;;;;;;38.67;19.53;;;7.00;98.20;;;;;;5030796;28;20321;-72
2021/03/11 02:54:18;;;;;;;33.87;20.30;;;7.00;98.20;;;;;;5037292;28;20037;-72
2021/03/11 02:56:46;;;;;;;35.10;22.47;;;7.00;98.10;;;;;;5029250;28;20086;-75
2021/03/11 02:59:12;;;;;;;38.43;22.80;;;7.00;98.20;;;;;;5040356;28;20558;-76
2021/03/11 03:01:42;;;;;;;36.63;20.40;;;7.00;98.10;;;;;;5045781;28;20033;-76
2021/03/11 03:04:11;;;;;;;28.50;15.67;;;7.00;98.10;;;;;;5046244;28;20048;-76
2021/03/11 03:06:40;;;;;;;31.80;19.23;;;7.00;98.20;;;;;;5048152;28;20068;-75
2021/03/11 03:09:08;;;;;;;36.73;21.63;;;7.00;98.10;;;;;;5041103;28;20607;-76
2021/03/11 03:11:37;;;;;;;42.43;21.93;;;7.00;98.10;;;;;;5039573;28;20037;-76
2021/03/11 03:14:06;;;;;;;36.17;20.17;;;7.00;98.00;;;;;;5046088;28;20052;-75
2021/03/11 03:16:35;;;;;;;31.83;19.63;;;7.00;98.10;;;;;;5046415;28;20052;-76
2021/03/11 03:19:02;;;;;;;29.00;17.40;;;7.00;98.10;;;;;;5040954;28;20120;-76
2021/03/11 03:21:28;;;;;;;28.90;17.90;;;7.00;98.10;;;;;;5063967;28;20041;-76
2021/03/11 03:23:58;;;;;;;31.10;19.67;;;7.10;98.10;;;;;;5064613;28;20048;-76
2021/03/11 03:26:24;;;;;;;21.73;12.63;;;7.10;98.10;;;;;;5063541;28;20040;-77
2021/03/11 03:28:49;;;;;;;28.77;17.77;;;7.10;98.10;;;;;;5064462;28;20548;-76
2021/03/11 03:31:15;;;;;;;26.87;17.57;;;7.10;98.10;;;;;;5037867;28;20056;-77
2021/03/11 03:33:41;;;;;;;27.87;18.63;;;7.20;98.10;;;;;;5049205;28;20044;-77
2021/03/11 03:36:07;;;;;;;26.10;16.67;;;7.10;98.10;;;;;;5043728;28;20079;-76
2021/03/11 03:38:33;;;;;;;24.17;15.90;;;7.10;98.10;;;;;;5024643;28;20079;-76
2021/03/11 03:41:00;;;;;;;29.37;16.70;;;7.20;98.10;;;;;;5032953;28;20040;-76
2021/03/11 03:43:30;;;;;;;28.13;17.27;;;7.20;98.10;;;;;;5029788;28;20044;-76
2021/03/11 03:46:13;;;;;;;25.47;17.10;;;7.20;98.10;;;;;;5048216;28;20070;-77
2021/03/11 03:48:52;;;;;;;27.90;18.23;;;7.20;98.20;;;;;;5044005;28;20041;-76
2021/03/11 03:51:23;;;;;;;27.97;18.40;;;7.30;98.10;;;;;;5044847;28;20640;-78
2021/03/11 03:53:53;;;;;;;;;;;7.30;98.20;;;;;;5066113;28;20044;-78
2021/03/11 03:56:28;;;;;;;27.15;17.90;;;7.30;98.10;;;;;;5065707;28;19927;-77
2021/03/11 03:58:59;;;;;;;27.27;17.27;;;7.40;98.00;;;;;;5044454;28;20542;-78
2021/03/11 04:01:30;;;;;;;24.37;17.70;;;7.40;98.00;;;;;;5048546;28;20518;-79
2021/03/11 04:03:59;;;;;;;27.38;18.45;;;7.40;98.00;;;;;;5065481;28;20505;-77
2021/03/11 04:06:26;;;;;;;26.37;16.27;;;7.40;98.00;;;;;;5042925;28;20040;-78
2021/03/11 04:08:52;;;;;;;28.20;18.07;;;7.40;98.00;;;;;;5059744;28;20542;-78
2021/03/11 04:11:19;;;;;;;28.47;18.17;;;7.50;98.00;;;;;;5063180;28;20066;-78
2021/03/11 04:13:46;;;;;;;26.87;17.00;;;7.50;98.00;;;;;;5065274;28;20045;-78
2021/03/11 04:16:15;;;;;;;30.53;18.43;;;7.50;98.00;;;;;;5046887;28;20114;-78
2021/03/11 04:18:42;;;;;;;22.73;14.87;;;7.50;98.00;;;;;;5064395;28;20045;-78
2021/03/11 04:21:09;;;;;;;24.57;17.10;;;7.50;98.00;;;;;;5047116;28;20044;-77
2021/03/11 04:23:37;;;;;;;24.37;17.90;;;7.60;98.00;;;;;;5034120;28;20505;-78
2021/03/11 04:26:04;;;;;;;26.40;16.40;;;7.60;98.00;;;;;;5059003;28;20037;-78
2021/03/11 04:28:33;;;;;;;24.87;16.20;;;7.60;97.90;;;;;;5044715;28;20041;-78
2021/03/11 04:31:00;;;;;;;25.07;16.70;;;7.60;97.90;;;;;;5044460;28;20056;-78
2021/03/11 04:33:26;;;;;;;28.17;17.37;;;7.60;97.90;;;;;;5043347;28;20041;-77
2021/03/11 04:35:52;;;;;;;23.17;14.90;;;7.60;98.00;;;;;;5046735;28;20041;-78
2021/03/11 04:38:19;;;;;;;24.77;16.67;;;7.50;98.10;;;;;;5046902;28;20108;-79
2021/03/11 04:40:46;;;;;;;21.60;15.37;;;7.60;98.20;;;;;;5024370;28;20488;-78
2021/03/11 04:43:12;;;;;;;21.27;13.90;;;7.70;98.30;;;;;;5038940;28;20045;-78
2021/03/11 04:45:42;;;;;;;20.07;12.93;;;7.70;98.30;;;;;;5041839;28;20041;-77
2021/03/11 04:48:10;;;;;;;19.10;13.32;;;7.70;98.30;;;;;;5049997;28;20493;-77
2021/03/11 04:50:41;;;;;;;19.43;14.17;;;7.80;98.30;;;;;;5027217;28;20431;-74
2021/03/11 04:53:08;;;;;;;21.17;15.13;;;7.80;98.20;;;;;;5044371;28;20127;-74
2021/03/11 04:55:34;;;;;;;17.80;13.10;;;7.90;98.10;;;;;;5043868;28;20091;-73
2021/03/11 04:58:02;;;;;;;18.03;11.67;;;8.00;98.10;;;;;;5040052;28;20043;-75
2021/03/11 05:00:28;;;;;;;18.93;12.17;;;8.00;98.00;;;;;;5049035;28;20090;-74
2021/03/11 05:02:56;;;;;;;20.17;13.77;;;8.00;98.00;;;;;;5043031;28;20033;-73
2021/03/11 05:05:36;;;;;;;15.80;11.63;;;8.10;98.00;;;;;;5046557;28;20655;-73
2021/03/11 05:08:03;;;;;;;21.07;13.57;;;8.00;98.10;;;;;;5044230;28;20047;-73
2021/03/11 05:10:29;;;;;;;22.10;14.43;;;8.00;98.10;;;;;;5043934;28;20563;-77
2021/03/11 05:12:55;;;;;;;18.40;12.77;;;8.10;98.10;;;;;;5048262;28;20045;-75
2021/03/11 05:15:22;;;;;;;15.90;11.03;;;8.10;98.00;;;;;;5046158;28;20056;-77
2021/03/11 05:17:48;;;;;;;17.83;13.00;;;8.10;98.00;;;;;;5049479;28;20055;-76
2021/03/11 05:20:15;;;;;;;18.20;12.47;;;8.10;98.00;;;;;;5045614;28;20041;-76
2021/03/11 05:22:41;;;;;;;17.23;11.97;;;8.20;98.00;;;;;;5055177;28;20410;-77
2021/03/11 05:25:10;;;;;;;18.23;13.60;;;8.20;97.80;;;;;;5067380;28;20399;-77
2021/03/11 05:27:38;;;;;;;19.83;14.80;;;8.30;97.70;;;;;;5065003;28;20040;-76
2021/03/11 05:30:05;;;;;;;20.33;12.37;;;8.30;97.70;;;;;;5048245;28;20047;-77
2021/03/11 05:32:31;;;;;;;21.33;15.20;;;8.30;97.70;;;;;;5064638;28;20509;-77
2021/03/11 05:34:57;;;;;;;22.23;14.83;;;8.20;97.60;;;;;;5050067;28;20040;-76
2021/03/11 05:37:26;;;;;;;21.27;14.60;;;8.30;97.50;;;;;;5030529;28;20519;-77
2021/03/11 05:39:52;;;;;;;16.20;12.27;;;8.30;97.50;;;;;;5037346;28;20442;-78
2021/03/11 05:42:19;;;;;;;22.50;14.57;;;8.40;97.40;;;;;;5059906;28;20037;-76
2021/03/11 05:44:46;;;;;;;22.17;13.93;;;8.50;97.30;;;;;;5031438;28;20040;-77
2021/03/11 05:47:13;;;;;;;20.00;14.20;;;8.50;97.30;;;;;;5050310;28;20041;-74
2021/03/11 05:49:41;;;;;;;24.37;15.47;;;8.50;97.30;;;;;;5049241;28;20059;-74
2021/03/11 05:52:11;;;;;;;24.83;14.57;;;8.60;97.10;;;;;;5061138;28;20969;-74
2021/03/11 05:54:37;;;;;;;;;;;8.60;97.00;;;;;;5052212;28;20045;-73
2021/03/11 05:57:07;;;;;;;24.33;15.13;;;8.60;97.00;;;;;;5030957;28;20012;-73
2021/03/11 05:59:34;;;;;;;21.63;14.50;;;8.70;96.90;;;;;;5040388;28;20399;-74
2021/03/11 06:02:08;;;;;;;23.43;16.47;;;8.70;97.10;;;;;;5043014;28;20041;-73
2021/03/11 06:04:35;;;;;;;20.13;15.93;;;8.60;97.50;;;;;;5066313;28;20491;-73
2021/03/11 06:07:06;;;;;;;16.20;10.90;;;8.60;97.30;;;;;;5038291;28;20044;-74
2021/03/11 06:09:33;;;;;;;23.23;16.00;;;8.60;97.40;;;;;;5048640;28;20068;-73
2021/03/11 06:12:00;;;;;;;18.03;13.50;;;8.60;97.40;;;;;;5069972;28;20106;-73
2021/03/11 06:14:27;;;;;;;23.63;17.63;;;8.60;97.50;;;;;;5049555;28;20043;-73
2021/03/11 06:17:02;;;;;;;25.10;16.20;;;8.70;97.50;;;;;;5051601;28;20098;-73
2021/03/11 06:19:28;;;;;;;27.57;18.57;;;8.60;97.50;;;;;;5077892;28;20493;-73
2021/03/11 06:21:54;;;;;;;21.43;13.97;;;8.60;97.60;;;;;;5052321;28;20070;-73
2021/03/11 06:24:24;;;;;;;24.13;16.13;;;8.60;97.80;;;;;;5067557;28;20116;-73
2021/03/11 06:26:50;;;;;;;30.02;17.70;;;8.60;97.80;;;;;;5056975;28;20059;-73
2021/03/11 06:29:34;;;;;;;26.57;17.23;;;8.70;97.60;;;;;;5066554;28;20522;-76
2021/03/11 06:32:03;;;;;;;27.40;13.87;;;8.80;98.20;;;;;;5061033;28;20487;-77
2021/03/11 06:34:39;;;;;;;21.17;14.13;;;8.70;98.00;;;;;;5058106;28;20477;-77
2021/03/11 06:37:06;;;;;;;18.83;12.10;;;8.80;97.90;;;;;;5062500;28;21003;-78
2021/03/11 06:39:37;;;;;;;21.90;15.33;;;8.80;98.20;;;;;;5062290;28;20403;-76
2021/03/11 06:42:04;;;;;;;19.53;14.07;;;8.80;97.90;;;;;;5066077;28;20028;-77
2021/03/11 06:44:43;;;;;;;22.17;13.37;;;8.80;97.90;;;;;;5031168;28;20491;-76
2021/03/11 06:47:11;;;;;;;21.00;13.23;;;8.80;97.90;;;;;;5064392;28;20399;-76
2021/03/11 06:49:56;;;;;;;17.87;12.27;;;8.90;98.00;;;;;;5062235;28;20033;-76
2021/03/11 06:52:22;;;;;;;22.47;12.33;;;9.00;97.80;;;;;;5064390;28;20121;-76
2021/03/11 06:54:58;;;;;;;15.60;10.60;;;9.10;97.40;;;;;;5047223;28;20285;-76
2021/03/11 06:57:50;;;;;;;14.07;9.40;;;9.20;96.90;;;;;;5062235;28;20037;-76
2021/03/11 07:00:18;;;;;;;13.60;8.73;;;9.20;96.60;;;;;;5053309;28;20048;-77
2021/03/11 07:03:00;;;;;;;11.47;7.87;;;9.30;96.40;;;;;;5030367;28;20037;-77
2021/03/11 07:05:29;;;;;;;15.30;9.63;;;9.40;96.20;;;;;;5009129;28;20102;-77
2021/03/11 07:08:14;;;;;;;15.00;9.80;;;9.50;96.00;;;;;;5043081;28;20161;-77
2021/03/11 07:10:44;;;;;;;16.80;10.17;;;9.50;96.00;;;;;;5062703;28;20060;-77
2021/03/11 07:13:10;;;;;;;;;;;9.60;96.00;;;;;;5030103;28;20399;-76
2021/03/11 07:15:38;;;;;;;15.80;10.80;;;9.60;95.90;;;;;;5024817;28;20043;-78
2021/03/11 07:18:20;;;;;;;12.13;9.07;;;9.70;96.00;;;;;;5061394;28;20111;-77
2021/03/11 07:20:49;;;;;;;14.80;10.20;;;9.70;95.80;;;;;;5063097;28;20037;-76
2021/03/11 07:23:15;;;;;;;14.00;8.00;;;9.70;95.70;;;;;;5062116;28;20080;-76
2021/03/11 07:25:45;;;;;;;15.33;10.43;;;9.70;95.30;;;;;;5063791;28;20064;-77
2021/03/11 07:28:29;;;;;;;13.27;8.60;;;9.80;95.10;;;;;;5042901;28;20074;-77
2021/03/11 07:31:00;;;;;;;13.77;9.93;;;9.90;95.30;;;;;;5027191;28;20127;-77
2021/03/11 07:33:28;;;;;;;14.95;10.23;;;9.90;95.10;;;;;;5058432;28;20052;-76
2021/03/11 07:35:58;;;;;;;12.67;7.43;;;9.90;94.60;;;;;;5060842;28;20340;-77
2021/03/11 07:38:26;;;;;;;14.00;9.07;;;10.00;94.00;;;;;;5057841;28;21160;-77
2021/03/11 07:40:55;;;;;;;12.23;7.20;;;10.10;93.90;;;;;;5063299;28;20068;-76
2021/03/11 07:43:22;;;;;;;12.90;8.07;;;10.20;93.90;;;;;;5060861;28;20078;-75
2021/03/11 07:45:49;;;;;;;13.23;7.47;;;10.20;93.30;;;;;;5066127;28;20133;-77
2021/03/11 07:48:16;;;;;;;10.87;6.87;;;10.20;93.20;;;;;;5058348;28;20449;-76
2021/03/11 07:50:43;;;;;;;12.33;7.40;;;10.20;93.10;;;;;;5042233;28;20446;-76
2021/03/11 07:53:10;;;;;;;17.40;8.90;;;10.10;93.00;;;;;;5063469;28;20052;-76
2021/03/11 07:55:37;;;;;;;15.10;8.07;;;10.10;92.90;;;;;;5047327;28;20039;-76
2021/03/11 07:58:06;;;;;;;15.13;8.10;;;10.10;93.00;;;;;;5046603;28;20044;-76
2021/03/11 08:00:32;;;;;;;17.07;7.77;;;10.10;93.00;;;;;;5065032;28;20075;-75
2021/03/11 08:03:03;;;;;;;11.77;6.93;;;10.00;93.10;;;;;;5064558;28;20040;-78
2021/03/11 08:05:30;;;;;;;11.73;7.30;;;10.10;92.60;;;;;;5058603;28;20048;-76
2021/03/11 08:08:22;;;;;;;12.20;6.20;;;10.10;92.40;;;;;;5062752;28;20502;-76
2021/03/11 08:10:58;;;;;;;14.10;6.07;;;10.20;92.00;;;;;;5057865;28;20063;-76
2021/03/11 08:13:35;;;;;;;16.80;8.23;;;10.20;91.90;;;;;;5061319;28;20056;-76
2021/03/11 08:16:10;;;;;;;10.60;5.63;;;10.30;92.10;;;;;;5059076;28;20429;-77
2021/03/11 08:18:36;;;;;;;12.93;5.37;;;10.40;91.60;;;;;;5061005;28;20033;-77
2021/03/11 08:21:04;;;;;;;12.47;5.03;;;10.40;91.10;;;;;;5062024;28;20132;-76
2021/03/11 08:23:32;;;;;;;13.40;4.80;;;10.50;90.50;;;;;;5042512;28;20057;-79
2021/03/11 08:25:59;;;;;;;10.07;4.27;;;10.60;89.80;;;;;;5041381;28;20105;-75
2021/03/11 08:28:28;;;;;;;15.23;5.07;;;10.60;89.80;;;;;;5057482;28;20033;-78
2021/03/11 08:30:56;;;;;;;14.00;4.13;;;10.70;87.30;;;;;;5051030;28;20043;-76
2021/03/11 08:33:25;;;;;;;20.13;4.70;;;10.70;86.10;;;;;;5037228;28;20076;-76
2021/03/11 08:35:53;;;;;;;19.47;5.57;;;10.80;85.90;;;;;;5039143;28;20119;-78
2021/03/11 08:38:19;;;;;;;22.57;6.17;;;10.80;83.50;;;;;;5040649;28;20045;-77
2021/03/11 08:40:54;;;;;;;18.13;4.47;;;10.90;82.90;;;;;;5044527;28;20048;-77
2021/03/11 08:43:44;;;;;;;22.67;5.03;;;10.90;81.90;;;;;;5055634;28;20068;-78
2021/03/11 08:46:23;;;;;;;19.20;5.60;;;10.90;80.50;;;;;;5037689;28;20104;-77
2021/03/11 08:48:58;;;;;;;20.83;4.30;;;10.90;80.40;;;;;;5044126;28;20071;-78
2021/03/11 08:51:24;;;;;;;16.20;4.50;;;10.90;81.20;;;;;;5040829;28;20465;-76
2021/03/11 08:53:58;;;;;;;20.33;5.33;;;10.90;81.00;;;;;;5041585;28;20032;-77
2021/03/11 08:56:27;;;;;;;17.03;3.90;;;10.90;80.70;;;;;;5029477;28;20044;-78
2021/03/11 08:58:58;;;;;;;21.47;6.30;;;11.00;79.90;;;;;;5039022;28;20095;-78
2021/03/11 09:01:40;;;;;;;26.90;5.80;;;11.00;79.30;;;;;;5039799;28;20037;-77
2021/03/11 09:04:37;;;;;;;19.77;3.93;;;11.00;79.30;;;;;;5044001;28;20685;-76
2021/03/11 09:07:05;;;;;;;20.53;3.90;;;11.00;80.10;;;;;;5035460;28;20124;-76
2021/03/11 09:09:49;;;;;;;24.40;5.37;;;11.00;80.10;;;;;;5071538;28;20044;-76
2021/03/11 09:12:18;;;;;;;15.07;3.77;;;11.00;79.80;;;;;;5039489;28;20045;-78
2021/03/11 09:14:49;;;;;;;26.40;6.60;;;11.10;79.10;;;;;;5044276;28;20041;-77
2021/03/11 09:17:23;;;;;;;19.87;4.50;;;11.10;79.40;;;;;;5038358;28;20083;-77
2021/03/11 09:20:01;;;;;;;18.30;5.10;;;11.10;79.40;;;;;;5057738;28;20041;-75
2021/03/11 09:22:27;;;;;;;16.83;3.47;;;11.10;77.60;;;;;;5055615;28;20499;-75
2021/03/11 09:25:05;;;;;;;20.77;5.80;;;11.10;78.30;;;;;;5042616;28;20076;-74
2021/03/11 09:27:33;;;;;;;25.37;5.40;;;11.00;78.00;;;;;;5027377;28;20136;-76
2021/03/11 09:30:05;;;;;;;24.60;4.27;;;11.00;77.40;;;;;;5024449;28;20049;-76
2021/03/11 09:32:33;;;;;;;16.30;4.13;;;11.10;77.40;;;;;;5045928;28;20033;-75
2021/03/11 09:35:00;;;;;;;17.57;3.77;;;11.10;78.10;;;;;;5031328;28;20618;-75
2021/03/11 09:37:56;;;;;;;18.70;4.18;;;11.10;78.30;;;;;;5045092;28;20056;-74
2021/03/11 09:40:30;;;;;;;24.03;6.23;;;11.10;78.10;;;;;;5045642;28;20041;-75
2021/03/11 09:43:07;;;;;;;19.63;5.10;;;11.10;77.90;;;;;;5041326;28;20077;-75
2021/03/11 09:45:38;;;;;;;20.07;4.20;;;11.10;77.50;;;;;;5045058;28;20043;-74
2021/03/11 09:48:16;;;;;;;24.08;4.65;;;11.10;77.40;;;;;;5028176;28;20045;-74
2021/03/11 09:51:04;;;;;;;27.73;5.87;;;11.10;76.90;;;;;;5009910;28;20094;-74
2021/03/11 09:53:47;;;;;;;19.50;4.30;;;11.20;75.50;;;;;;5030443;28;20186;-78
2021/03/11 09:56:22;;;;;;;19.80;6.10;;;11.30;76.10;;;;;;5021219;28;20053;-80
2021/03/11 09:59:05;;;;;;;20.30;6.43;;;11.30;75.10;;;;;;5042629;28;20075;-79
2021/03/11 10:01:32;;;;;;;24.50;5.70;;;11.30;74.00;;;;;;5052173;28;20040;-79
2021/03/11 10:03:59;;;;;;;18.93;4.00;;;11.30;75.80;;;;;;5024513;28;20318;-80
2021/03/11 10:06:27;;;;;;;18.00;4.10;;;11.30;74.20;;;;;;5004614;28;20410;-79
2021/03/11 10:08:59;;;;;;;22.03;5.43;;;11.20;74.10;;;;;;5024254;28;20041;-78
2021/03/11 10:11:40;;;;;;;22.57;5.80;;;11.20;74.10;;;;;;5012758;28;20045;-79
2021/03/11 10:14:29;;;;;;;23.20;6.77;;;11.10;74.50;;;;;;5045064;28;20059;-77
2021/03/11 10:16:56;;;;;;;21.17;7.03;;;11.10;76.00;;;;;;5025227;28;20434;-79
2021/03/11 10:19:28;;;;;;;19.97;5.03;;;11.10;76.50;;;;;;5056353;28;20040;-76
2021/03/11 10:21:58;;;;;;;20.00;6.23;;;11.00;76.70;;;;;;5028103;28;20037;-79
2021/03/11 10:24:45;;;;;;;23.48;5.00;;;11.00;77.60;;;;;;5058654;28;20044;-80
2021/03/11 10:27:23;;;;;;;20.50;4.70;;;10.90;82.00;;;;;;5022663;28;20049;-81
2021/03/11 10:30:09;;;;;;;24.10;6.07;;;10.80;82.70;;;;;;5040991;28;20101;-81
2021/03/11 10:32:43;;;;;;;22.10;6.53;;;10.50;85.00;;;;;;5046454;28;20225;-80
2021/03/11 10:35:10;;;;;;;30.60;5.10;;;10.30;85.80;;;;;;5006211;28;20411;-78
2021/03/11 10:37:41;;;;;;;23.43;6.63;;;10.10;88.90;;;;;;5043422;28;20040;-78
2021/03/11 10:40:25;;;;;;;25.67;6.32;;;9.90;90.10;;;;;;5060114;28;20072;-82
2021/03/11 10:42:54;;;;;;;21.80;5.57;;;9.70;90.70;;;;;;5029648;28;20041;-79
2021/03/11 10:45:24;;;;;;;27.60;6.20;;;9.50;91.50;;;;;;5062239;28;20044;-77
2021/03/11 10:48:08;;;;;;;22.00;6.50;;;9.30;92.20;;;;;;5060698;28;20435;-79
2021/03/11 10:50:45;;;;;;;16.50;3.73;;;9.20;92.40;;;;;;5046699;28;20052;-75
2021/03/11 10:53:15;;;;;;;24.17;4.90;;;9.20;92.80;;;;;;5062970;28;20178;-76
2021/03/11 10:55:43;;;;;;;19.40;4.33;;;9.20;92.90;;;;;;5013958;28;20494;-76
2021/03/11 10:58:25;;;;;;;24.80;4.33;;;9.10;93.60;;;;;;5045436;28;20075;-78
2021/03/11 11:01:03;;;;;;;25.87;5.90;;;9.00;93.60;;;;;;5027214;28;20071;-78
2021/03/11 11:03:29;;;;;;;30.40;5.93;;;9.00;94.10;;;;;;5061998;28;20772;-78
2021/03/11 11:05:55;;;;;;;22.83;6.27;;;8.90;94.40;;;;;;5039025;28;20052;-77
2021/03/11 11:08:21;;;;;;;28.37;7.03;;;8.90;94.20;;;;;;5025761;28;20332;-77
2021/03/11 11:10:47;;;;;;;26.30;7.17;;;8.80;94.60;;;;;;5037920;28;20052;-78
2021/03/11 11:13:13;;;;;;;31.50;6.80;;;8.80;94.50;;;;;;5040472;28;20044;-77
2021/03/11 11:15:39;;;;;;;32.07;5.47;;;8.70;94.50;;;;;;5043400;28;20099;-76
2021/03/11 11:18:05;;;;;;;19.23;4.00;;;8.70;94.80;;;;;;5038286;28;20484;-76
2021/03/11 11:20:32;;;;;;;18.70;3.90;;;8.70;95.00;;;;;;5041867;28;20388;-77
2021/03/11 11:22:58;;;;;;;23.70;5.87;;;8.70;95.10;;;;;;5041044;28;20052;-78
2021/03/11 11:25:25;;;;;;;29.23;7.40;;;8.70;95.00;;;;;;5023181;28;20794;-78
2021/03/11 11:27:51;;;;;;;24.57;5.33;;;8.60;95.20;;;;;;5039958;28;20056;-77
2021/03/11 11:30:17;;;;;;;24.80;6.70;;;8.70;95.30;;;;;;5057397;28;20071;-77
2021/03/11 11:32:43;;;;;;;26.03;5.13;;;8.60;95.40;;;;;;5062167;28;20048;-76
2021/03/11 11:35:10;;;;;;;30.10;6.73;;;8.60;95.40;;;;;;5023242;28;20514;-78
2021/03/11 11:37:36;;;;;;;20.90;5.87;;;8.60;95.40;;;;;;5046998;28;20653;-75
2021/03/11 11:40:03;;;;;;;23.90;5.73;;;8.60;95.20;;;;;;5021035;28;20048;-75
2021/03/11 11:42:29;;;;;;;26.37;6.50;;;8.60;95.50;;;;;;5040556;28;20204;-79
2021/03/11 11:44:56;;;;;;;28.37;6.40;;;8.60;95.10;;;;;;5065076;28;20140;-77
2021/03/11 11:47:22;;;;;;;24.07;5.27;;;8.60;95.00;;;;;;5061367;28;20044;-76
2021/03/11 11:49:49;;;;;;;35.60;5.70;;;8.50;95.50;;;;;;5046633;28;20087;-75
2021/03/11 11:52:15;;;;;;;25.70;4.63;;;8.40;95.70;;;;;;5066594;28;20102;-78
2021/03/11 11:54:41;;;;;;;19.93;5.00;;;8.40;95.70;;;;;;5029179;28;20106;-77
2021/03/11 11:57:10;;;;;;;25.30;5.90;;;8.40;95.80;;;;;;5032095;28;20482;-77
2021/03/11 11:59:36;;;;;;;23.00;4.63;;;8.50;96.10;;;;;;5032270;28;20148;-76
2021/03/11 12:02:02;;;;;;;22.87;5.63;;;8.40;96.00;;;;;;5026770;28;20119;-79
2021/03/11 12:04:28;;;;;;;21.60;5.93;;;8.40;95.90;;;;;;5042054;28;20048;-77
2021/03/11 12:06:54;;;;;;;26.47;5.10;;;8.40;95.70;;;;;;5060577;28;20491;-77
2021/03/11 12:09:20;;;;;;;30.37;6.70;;;8.40;96.00;;;;;;5032089;28;20048;-79
2021/03/11 12:11:47;;;;;;;23.03;6.27;;;8.40;96.30;;;;;;5046086;28;20482;-76
2021/03/11 12:14:14;;;;;;;25.10;4.60;;;8.30;96.30;;;;;;5062137;28;20033;-78
2021/03/11 12:16:39;;;;;;;21.60;4.90;;;8.30;96.50;;;;;;5042568;28;20045;-76
2021/03/11 12:19:05;;;;;;;33.63;6.77;;;8.30;96.40;;;;;;5047353;28;20048;-78
2021/03/11 12:21:32;;;;;;;26.83;5.50;;;8.30;96.50;;;;;;5027421;28;20032;-78
2021/03/11 12:24:02;;;;;;;27.27;6.40;;;8.30;96.70;;;;;;5026649;28;20049;-78
2021/03/11 12:26:29;;;;;;;31.33;5.20;;;8.30;96.60;;;;;;5005768;28;20056;-77
2021/03/11 12:28:55;;;;;;;33.43;6.80;;;8.40;96.70;;;;;;5046960;28;20467;-79
2021/03/11 12:31:24;;;;;;;27.30;5.07;;;8.30;96.80;;;;;;5056883;28;20055;-78
2021/03/11 12:33:51;;;;;;;35.43;5.63;;;8.40;96.60;;;;;;5025678;28;20044;-79
2021/03/11 12:36:17;;;;;;;34.80;7.67;;;8.40;96.70;;;;;;5050386;28;20422;-79
2021/03/11 12:38:46;;;;;;;27.87;6.67;;;8.40;96.30;;;;;;5063023;28;20060;-81
2021/03/11 12:41:12;;;;;;;27.23;6.10;;;8.50;95.80;;;;;;5036139;28;20049;-78
2021/03/11 12:43:40;;;;;;;25.47;6.17;;;8.70;95.40;;;;;;5037594;28;20240;-78
2021/03/11 12:46:22;;;;;;;32.67;5.43;;;8.80;95.20;;;;;;5028388;28;20063;-78
2021/03/11 12:48:49;;;;;;;27.50;5.27;;;8.70;95.30;;;;;;5043854;28;20087;-81
2021/03/11 12:51:16;;;;;;;32.17;5.83;;;8.80;95.20;;;;;;5028545;28;20076;-78
2021/03/11 12:53:42;;;;;;;29.83;5.00;;;8.80;95.20;;;;;;5043623;28;20056;-80